createdAt,value
2022-08-20T00:02:54.485Z,14.45
2022-08-20T00:07:49.413Z,13.95
2022-08-20T00:12:48.615Z,16.73
2022-08-20T00:17:43.071Z,17.15
2022-08-20T00:22:36.637Z,15.27
2022-08-20T00:27:31.570Z,13.65
2022-08-20T00:32:25.180Z,14.15
2022-08-20T00:37:18.615Z,18.38
2022-08-20T00:42:12.425Z,14.63
2022-08-20T00:47:09.330Z,13.57
2022-08-20T00:52:09.200Z,17.02
2022-08-20T00:57:08.385Z,15.32
2022-08-20T01:02:03.505Z,13.60
2022-08-20T01:06:58.760Z,15.95
2022-08-20T01:11:52.230Z,14.85
2022-08-20T01:16:49.431Z,14.10
2022-08-20T01:21:45.846Z,14.30
2022-08-20T01:26:47.457Z,15.68
2022-08-20T01:31:42.828Z,15.20
2022-08-20T01:36:45.586Z,15.25
2022-08-20T01:42:08.571Z,15.63
2022-08-20T01:47:22.934Z,16.60
2022-08-20T01:52:25.914Z,14.88
2022-08-20T01:57:26.824Z,14.90
2022-08-20T02:02:20.796Z,15.82
2022-08-20T02:07:19.104Z,17.48
2022-08-20T02:12:14.367Z,15.45
2022-08-20T02:17:09.386Z,14.85
2022-08-20T02:22:13.547Z,14.82
2022-08-20T02:27:07.122Z,12.93
2022-08-20T02:32:32.396Z,13.50
2022-08-20T02:37:18.435Z,15.52
2022-08-20T02:42:12.458Z,12.82
2022-08-20T02:47:07.415Z,14.02
2022-08-20T02:52:01.017Z,15.35
2022-08-20T02:56:55.984Z,14.05
2022-08-20T03:01:56.660Z,13.82
2022-08-20T03:06:54.106Z,14.82
2022-08-20T03:11:47.424Z,14.00
2022-08-20T03:16:43.107Z,17.30
2022-08-20T03:21:36.806Z,14.10
2022-08-20T03:26:30.137Z,15.02
2022-08-20T03:31:24.364Z,14.75
2022-08-20T03:36:20.802Z,15.52
2022-08-20T03:41:21.345Z,18.20
2022-08-20T03:46:22.031Z,15.57
2022-08-20T03:51:18.627Z,17.23
2022-08-20T03:56:11.994Z,17.88
2022-08-20T04:01:32.101Z,19.80
2022-08-20T04:06:23.050Z,18.27
2022-08-20T04:11:16.384Z,17.48
2022-08-20T04:16:11.752Z,20.33
2022-08-20T04:21:08.169Z,17.88
2022-08-20T04:26:02.923Z,16.17
2022-08-20T04:30:58.799Z,17.33
2022-08-20T04:35:52.100Z,17.02
2022-08-20T04:40:58.205Z,18.90
2022-08-20T04:45:54.088Z,17.88
2022-08-20T04:50:48.350Z,21.00
2022-08-20T04:55:44.181Z,17.38
2022-08-20T05:00:37.863Z,22.58
2022-08-20T05:05:35.049Z,19.25
2022-08-20T05:10:29.791Z,18.08
2022-08-20T05:15:24.567Z,18.00
2022-08-20T05:20:19.784Z,19.65
2022-08-20T05:25:14.547Z,18.55
2022-08-20T05:30:13.567Z,17.55
2022-08-20T05:35:10.799Z,19.45
2022-08-20T05:40:10.347Z,18.45
2022-08-20T05:45:10.975Z,18.40
2022-08-20T05:50:06.532Z,17.92
2022-08-20T05:55:00.131Z,18.27
2022-08-20T05:59:53.958Z,19.27
2022-08-20T06:04:48.659Z,17.60
2022-08-20T06:09:49.857Z,15.13
2022-08-20T06:14:43.436Z,19.73
2022-08-20T06:19:38.521Z,18.65
2022-08-20T06:24:33.592Z,16.40
2022-08-20T06:29:28.292Z,14.88
2022-08-20T06:34:21.741Z,13.73
2022-08-20T06:39:16.663Z,17.88
2022-08-20T06:44:11.408Z,15.57
2022-08-20T06:49:05.997Z,14.68
2022-08-20T06:53:59.781Z,14.88
2022-08-20T06:58:53.126Z,16.45
2022-08-20T07:03:55.483Z,16.05
2022-08-20T07:08:49.465Z,18.52
2022-08-20T07:13:42.865Z,15.75
2022-08-20T07:18:36.435Z,14.13
2022-08-20T07:23:31.826Z,14.60
2022-08-20T07:28:28.932Z,13.15
2022-08-20T07:33:22.704Z,14.45
2022-08-20T07:38:24.029Z,14.43
2022-08-20T07:43:19.190Z,12.40
2022-08-20T07:48:27.902Z,12.18
2022-08-20T07:53:26.956Z,10.38
2022-08-20T07:58:23.998Z,14.15
2022-08-20T08:03:39.913Z,11.85
2022-08-20T08:08:43.648Z,12.55
2022-08-20T08:13:42.393Z,12.82
2022-08-20T08:18:42.136Z,13.18
2022-08-20T08:23:36.211Z,13.38
2022-08-20T08:28:30.647Z,11.98
2022-08-20T08:33:29.427Z,13.52
2022-08-20T08:38:24.268Z,11.95
2022-08-20T08:43:21.283Z,12.20
2022-08-20T08:48:18.811Z,11.13
2022-08-20T08:53:23.825Z,10.82
2022-08-20T08:58:17.608Z,10.55
2022-08-20T09:03:18.548Z,8.90
2022-08-20T09:08:19.426Z,8.00
2022-08-20T09:13:12.907Z,7.35
2022-08-20T09:18:06.396Z,5.97
2022-08-20T09:22:59.884Z,5.85
2022-08-20T09:27:54.727Z,4.68
2022-08-20T09:32:48.150Z,4.68
2022-08-20T09:37:41.635Z,4.50
2022-08-20T09:42:41.437Z,4.03
2022-08-20T09:47:36.658Z,4.30
2022-08-20T09:52:40.225Z,4.57
2022-08-20T09:57:40.099Z,7.15
2022-08-20T10:03:00.892Z,5.57
2022-08-20T10:07:55.861Z,4.53
2022-08-20T10:12:54.600Z,4.32
2022-08-20T10:18:04.426Z,3.03
2022-08-20T10:22:59.930Z,2.50
2022-08-20T10:27:53.866Z,3.38
2022-08-20T10:32:47.380Z,2.70
2022-08-20T10:37:42.255Z,1.90
2022-08-20T10:42:40.449Z,2.30
2022-08-20T10:47:35.766Z,2.10
2022-08-20T10:52:29.916Z,2.10
2022-08-20T10:57:29.372Z,2.80
2022-08-20T11:02:24.653Z,1.90
2022-08-20T11:07:21.877Z,1.40
2022-08-20T11:12:37.175Z,0.70
2022-08-20T11:17:33.800Z,0.90
2022-08-20T11:22:30.638Z,0.90
2022-08-20T11:27:26.659Z,0.77
2022-08-20T11:32:22.518Z,0.80
2022-08-20T11:37:18.566Z,0.70
2022-08-20T11:42:12.971Z,1.92
2022-08-20T11:47:08.407Z,1.20
2022-08-20T11:56:58.910Z,1.77
2022-08-20T12:07:11.181Z,0.98
2022-08-20T12:42:58.817Z,1.13
2022-08-20T12:47:52.207Z,0.90
2022-08-20T12:58:22.282Z,0.95
2022-08-20T13:03:16.071Z,1.13
2022-08-20T13:08:12.148Z,1.00
2022-08-20T13:13:05.823Z,0.98
2022-08-20T13:18:04.433Z,0.82
2022-08-20T13:22:58.476Z,1.10
2022-08-20T13:27:57.134Z,0.65
2022-08-20T13:32:50.628Z,1.23
2022-08-20T13:37:45.529Z,0.77
2022-08-20T13:42:40.051Z,1.00
2022-08-20T13:47:38.200Z,0.70
2022-08-20T13:52:32.055Z,0.63
2022-08-20T13:57:28.017Z,0.60
2022-08-20T14:02:22.546Z,0.57
2022-08-20T14:07:19.125Z,0.93
2022-08-20T14:12:14.268Z,0.80
2022-08-20T14:17:21.901Z,0.40
2022-08-20T14:22:17.443Z,0.47
2022-08-20T14:27:10.831Z,0.43
2022-08-20T14:32:05.672Z,0.47
2022-08-20T14:37:13.014Z,0.40
2022-08-20T14:42:07.182Z,0.50
2022-08-20T14:47:13.702Z,0.50
2022-08-20T14:52:08.975Z,0.68
2022-08-20T15:02:15.906Z,0.50
2022-08-20T15:17:32.322Z,0.57
2022-08-20T15:27:27.419Z,0.65
2022-08-20T15:32:22.362Z,0.70
2022-08-20T15:37:19.852Z,0.70
2022-08-20T16:18:36.270Z,0.98
2022-08-20T16:59:35.612Z,1.08
2022-08-20T17:09:31.337Z,1.10
2022-08-20T17:14:27.172Z,0.82
2022-08-20T17:19:26.324Z,2.40
2022-08-20T17:24:28.326Z,0.90
2022-08-20T17:29:25.679Z,1.35
2022-08-20T17:34:22.429Z,0.80
2022-08-20T17:39:20.388Z,1.20
2022-08-20T17:44:23.871Z,0.70
2022-08-20T17:49:22.003Z,0.88
2022-08-20T17:54:27.220Z,1.52
2022-08-20T18:00:01.158Z,0.73
2022-08-20T18:04:48.230Z,1.15
2022-08-20T18:09:57.251Z,1.15
2022-08-20T18:15:04.141Z,0.90
2022-08-20T18:20:25.158Z,1.35
2022-08-20T18:25:36.564Z,1.00
2022-08-20T18:30:34.685Z,0.85
2022-08-20T18:35:38.742Z,1.00
2022-08-20T18:40:41.579Z,0.60
2022-08-20T18:45:37.979Z,1.10
2022-08-20T18:50:45.500Z,0.77
2022-08-20T18:55:42.697Z,0.80
2022-08-20T19:00:43.172Z,2.10
2022-08-20T19:05:48.494Z,1.48
2022-08-20T19:16:03.398Z,0.80
2022-08-20T19:21:01.611Z,2.10
2022-08-20T19:31:16.912Z,0.73
2022-08-20T19:36:14.678Z,1.00
2022-08-20T19:46:27.429Z,1.30
2022-08-20T19:51:30.784Z,2.05
2022-08-20T19:56:29.306Z,1.30
2022-08-20T20:22:24.608Z,2.53
2022-08-20T22:11:24.954Z,2.13
2022-08-20T22:32:51.990Z,1.50
